sensor_id;sensor_type;location;lat;lon;timestamp;pressure;altitude;pressure_sealevel;temperature;humidity
80777;BME280;70169;51.262;6.336;2023-08-17T00:00:58;101345.84;;;19.01;78.05
80777;BME280;70169;51.262;6.336;2023-08-17T00:03:14;101344.97;;;18.95;78.27
80777;BME280;70169;51.262;6.336;2023-08-17T00:05:29;101348.13;;;18.92;78.79
80777;BME280;70169;51.262;6.336;2023-08-17T00:07:47;101347.78;;;18.89;78.53
80777;BME280;70169;51.262;6.336;2023-08-17T00:10:03;101343.72;;;18.86;79.08
80777;BME280;70169;51.262;6.336;2023-08-17T00:12:18;101349.31;;;18.85;78.85
80777;BME280;70169;51.262;6.336;2023-08-17T00:14:33;101345.47;;;18.81;78.62
80777;BME280;70169;51.262;6.336;2023-08-17T00:16:50;101341.97;;;18.80;79.06
80777;BME280;70169;51.262;6.336;2023-08-17T00:19:05;101335.47;;;18.76;78.98
80777;BME280;70169;51.262;6.336;2023-08-17T00:21:20;101331.38;;;18.73;79.33
80777;BME280;70169;51.262;6.336;2023-08-17T00:23:36;101333.25;;;18.73;79.12
80777;BME280;70169;51.262;6.336;2023-08-17T00:25:51;101335.38;;;18.71;79.10
80777;BME280;70169;51.262;6.336;2023-08-17T00:28:06;101332.94;;;18.69;79.62
80777;BME280;70169;51.262;6.336;2023-08-17T00:30:22;101339.56;;;18.67;79.59
80777;BME280;70169;51.262;6.336;2023-08-17T00:32:37;101333.66;;;18.65;79.71
80777;BME280;70169;51.262;6.336;2023-08-17T00:34:53;101336.56;;;18.63;79.84
80777;BME280;70169;51.262;6.336;2023-08-17T00:37:08;101335.41;;;18.59;80.09
80777;BME280;70169;51.262;6.336;2023-08-17T00:39:23;101335.41;;;18.59;79.79
80777;BME280;70169;51.262;6.336;2023-08-17T00:41:39;101336.09;;;18.54;79.72
80777;BME280;70169;51.262;6.336;2023-08-17T00:43:54;101336.72;;;18.56;80.18
80777;BME280;70169;51.262;6.336;2023-08-17T00:46:10;101339.63;;;18.55;80.14
80777;BME280;70169;51.262;6.336;2023-08-17T00:48:26;101339.03;;;18.53;80.45
80777;BME280;70169;51.262;6.336;2023-08-17T00:50:47;101332.53;;;18.49;80.36
80777;BME280;70169;51.262;6.336;2023-08-17T00:53:07;101325.31;;;18.49;80.54
80777;BME280;70169;51.262;6.336;2023-08-17T00:55:28;101329.53;;;18.45;80.35
80777;BME280;70169;51.262;6.336;2023-08-17T00:57:43;101330.00;;;18.42;80.55
80777;BME280;70169;51.262;6.336;2023-08-17T00:59:59;101327.78;;;18.39;80.62
80777;BME280;70169;51.262;6.336;2023-08-17T01:02:16;101320.22;;;18.36;80.72
80777;BME280;70169;51.262;6.336;2023-08-17T01:04:32;101327.94;;;18.32;81.02
80777;BME280;70169;51.262;6.336;2023-08-17T01:06:47;101327.94;;;18.32;81.00
80777;BME280;70169;51.262;6.336;2023-08-17T01:09:03;101326.28;;;18.31;81.04
80777;BME280;70169;51.262;6.336;2023-08-17T01:14:02;101327.22;;;18.25;81.04
80777;BME280;70169;51.262;6.336;2023-08-17T01:16:33;101324.78;;;18.23;81.44
80777;BME280;70169;51.262;6.336;2023-08-17T01:18:51;101317.22;;;18.20;81.54
80777;BME280;70169;51.262;6.336;2023-08-17T01:21:10;101316.19;;;18.21;81.44
80777;BME280;70169;51.262;6.336;2023-08-17T01:23:25;101326.31;;;18.19;81.48
80777;BME280;70169;51.262;6.336;2023-08-17T01:25:40;101334.81;;;18.16;81.57
80777;BME280;70169;51.262;6.336;2023-08-17T01:27:56;101329.47;;;18.16;81.81
80777;BME280;70169;51.262;6.336;2023-08-17T01:30:16;101332.16;;;18.16;82.08
80777;BME280;70169;51.262;6.336;2023-08-17T01:32:53;101337.25;;;18.18;81.93
80777;BME280;70169;51.262;6.336;2023-08-17T01:35:20;101331.91;;;18.18;81.65
80777;BME280;70169;51.262;6.336;2023-08-17T01:37:40;101342.38;;;18.19;81.45
80777;BME280;70169;51.262;6.336;2023-08-17T01:39:57;101337.59;;;18.21;81.65
80777;BME280;70169;51.262;6.336;2023-08-17T01:42:15;101337.38;;;18.23;81.69
80777;BME280;70169;51.262;6.336;2023-08-17T01:44:31;101339.81;;;18.25;81.48
80777;BME280;70169;51.262;6.336;2023-08-17T01:47:02;101338.41;;;18.22;81.45
80777;BME280;70169;51.262;6.336;2023-08-17T01:49:17;101332.00;;;18.23;81.91
80777;BME280;70169;51.262;6.336;2023-08-17T01:51:33;101337.13;;;18.25;81.76
80777;BME280;70169;51.262;6.336;2023-08-17T01:53:48;101339.00;;;18.24;81.66
80777;BME280;70169;51.262;6.336;2023-08-17T01:56:04;101335.50;;;18.23;81.29
80777;BME280;70169;51.262;6.336;2023-08-17T01:58:19;101337.13;;;18.25;81.58
80777;BME280;70169;51.262;6.336;2023-08-17T02:00:35;101333.38;;;18.26;81.37
80777;BME280;70169;51.262;6.336;2023-08-17T02:02:50;101329.66;;;18.27;81.17
80777;BME280;70169;51.262;6.336;2023-08-17T02:05:05;101332.91;;;18.29;81.03
80777;BME280;70169;51.262;6.336;2023-08-17T02:07:21;101324.88;;;18.29;81.06
80777;BME280;70169;51.262;6.336;2023-08-17T02:09:36;101318.63;;;18.23;81.12
80777;BME280;70169;51.262;6.336;2023-08-17T02:11:51;101321.06;;;18.25;81.03
80777;BME280;70169;51.262;6.336;2023-08-17T02:14:07;101314.31;;;18.22;80.83
80777;BME280;70169;51.262;6.336;2023-08-17T02:16:22;101323.19;;;18.22;80.96
80777;BME280;70169;51.262;6.336;2023-08-17T02:18:37;101324.00;;;18.23;80.70
80777;BME280;70169;51.262;6.336;2023-08-17T02:20:52;101321.53;;;18.21;80.67
80777;BME280;70169;51.262;6.336;2023-08-17T02:23:08;101320.97;;;18.19;81.11
80777;BME280;70169;51.262;6.336;2023-08-17T02:25:23;101314.78;;;18.19;81.24
80777;BME280;70169;51.262;6.336;2023-08-17T02:27:39;101314.22;;;18.17;81.37
80777;BME280;70169;51.262;6.336;2023-08-17T02:29:54;101305.63;;;18.15;81.19
80777;BME280;70169;51.262;6.336;2023-08-17T02:32:09;101312.00;;;18.14;81.19
80777;BME280;70169;51.262;6.336;2023-08-17T02:34:25;101317.13;;;18.15;81.31
80777;BME280;70169;51.262;6.336;2023-08-17T02:36:40;101310.16;;;18.14;81.19
80777;BME280;70169;51.262;6.336;2023-08-17T02:38:55;101315.72;;;18.13;81.14
80777;BME280;70169;51.262;6.336;2023-08-17T02:41:11;101308.19;;;18.10;81.52
80777;BME280;70169;51.262;6.336;2023-08-17T02:43:26;101314.94;;;18.12;81.33
80777;BME280;70169;51.262;6.336;2023-08-17T02:45:41;101310.88;;;18.10;81.30
80777;BME280;70169;51.262;6.336;2023-08-17T02:47:57;101300.97;;;18.10;81.59
80777;BME280;70169;51.262;6.336;2023-08-17T02:50:12;101309.56;;;18.12;81.39
80777;BME280;70169;51.262;6.336;2023-08-17T02:52:27;101305.53;;;18.10;81.10
80777;BME280;70169;51.262;6.336;2023-08-17T02:54:42;101312.16;;;18.07;81.18
80777;BME280;70169;51.262;6.336;2023-08-17T02:56:59;101309.47;;;18.07;81.48
80777;BME280;70169;51.262;6.336;2023-08-17T02:59:14;101309.13;;;18.03;80.97
80777;BME280;70169;51.262;6.336;2023-08-17T03:01:29;101305.84;;;18.01;81.04
80777;BME280;70169;51.262;6.336;2023-08-17T03:03:46;101307.97;;;17.99;81.18
80777;BME280;70169;51.262;6.336;2023-08-17T03:06:02;101318.09;;;17.97;81.03
80777;BME280;70169;51.262;6.336;2023-08-17T03:08:17;101313.78;;;17.96;80.70
80777;BME280;70169;51.262;6.336;2023-08-17T03:10:33;101300.63;;;17.95;80.76
80777;BME280;70169;51.262;6.336;2023-08-17T03:12:49;101298.66;;;17.90;80.61
80777;BME280;70169;51.262;6.336;2023-08-17T03:15:06;101299.72;;;17.89;80.72
80777;BME280;70169;51.262;6.336;2023-08-17T03:17:21;101294.81;;;17.86;80.76
80777;BME280;70169;51.262;6.336;2023-08-17T03:19:36;101292.59;;;17.83;80.88
80777;BME280;70169;51.262;6.336;2023-08-17T03:21:52;101294.00;;;17.85;80.76
80777;BME280;70169;51.262;6.336;2023-08-17T03:24:07;101289.94;;;17.83;81.03
80777;BME280;70169;51.262;6.336;2023-08-17T03:26:22;101297.16;;;17.82;80.93
80777;BME280;70169;51.262;6.336;2023-08-17T03:28:38;101283.19;;;17.80;80.70
80777;BME280;70169;51.262;6.336;2023-08-17T03:30:56;101288.53;;;17.80;80.98
80777;BME280;70169;51.262;6.336;2023-08-17T03:33:12;101295.75;;;17.80;80.84
80777;BME280;70169;51.262;6.336;2023-08-17T03:35:27;101294.09;;;17.79;80.84
80777;BME280;70169;51.262;6.336;2023-08-17T03:37:42;101298.66;;;17.78;80.90
80777;BME280;70169;51.262;6.336;2023-08-17T03:39:57;101305.03;;;17.77;80.89
80777;BME280;70169;51.262;6.336;2023-08-17T03:42:13;101299.91;;;17.76;80.84
80777;BME280;70169;51.262;6.336;2023-08-17T03:44:28;101304.47;;;17.75;81.14
80777;BME280;70169;51.262;6.336;2023-08-17T03:46:43;101304.69;;;17.74;80.87
80777;BME280;70169;51.262;6.336;2023-08-17T03:48:59;101296.91;;;17.72;80.60
80777;BME280;70169;51.262;6.336;2023-08-17T03:51:14;101300.03;;;17.69;81.00
80777;BME280;70169;51.262;6.336;2023-08-17T03:53:29;101303.56;;;17.70;80.84
80777;BME280;70169;51.262;6.336;2023-08-17T03:55:48;101303.78;;;17.68;80.51
80777;BME280;70169;51.262;6.336;2023-08-17T03:58:03;101305.84;;;17.66;80.58
80777;BME280;70169;51.262;6.336;2023-08-17T04:00:19;101311.19;;;17.66;80.84
80777;BME280;70169;51.262;6.336;2023-08-17T04:02:34;101305.50;;;17.62;81.14
80777;BME280;70169;51.262;6.336;2023-08-17T04:04:50;101310.50;;;17.59;80.79
80777;BME280;70169;51.262;6.336;2023-08-17T04:07:05;101312.97;;;17.60;80.78
80777;BME280;70169;51.262;6.336;2023-08-17T04:09:22;101315.28;;;17.57;80.68
80777;BME280;70169;51.262;6.336;2023-08-17T04:11:37;101308.53;;;17.54;80.73
80777;BME280;70169;51.262;6.336;2023-08-17T04:13:52;101311.66;;;17.51;80.60
80777;BME280;70169;51.262;6.336;2023-08-17T04:16:07;101316.09;;;17.45;80.67
80777;BME280;70169;51.262;6.336;2023-08-17T04:18:23;101319.34;;;17.47;80.64
80777;BME280;70169;51.262;6.336;2023-08-17T04:20:38;101316.31;;;17.44;80.68
80777;BME280;70169;51.262;6.336;2023-08-17T04:22:53;101323.28;;;17.45;80.79
80777;BME280;70169;51.262;6.336;2023-08-17T04:25:09;101322.47;;;17.44;80.83
80777;BME280;70169;51.262;6.336;2023-08-17T04:27:24;101320.03;;;17.43;80.49
80777;BME280;70169;51.262;6.336;2023-08-17T04:29:40;101326.41;;;17.42;80.72
80777;BME280;70169;51.262;6.336;2023-08-17T04:31:55;101328.28;;;17.41;80.99
80777;BME280;70169;51.262;6.336;2023-08-17T04:34:10;101325.81;;;17.40;81.26
80777;BME280;70169;51.262;6.336;2023-08-17T04:36:26;101322.13;;;17.41;80.92
80777;BME280;70169;51.262;6.336;2023-08-17T04:38:41;101326.63;;;17.40;80.75
80777;BME280;70169;51.262;6.336;2023-08-17T04:40:56;101325.03;;;17.39;80.93
80777;BME280;70169;51.262;6.336;2023-08-17T04:43:12;101326.84;;;17.39;81.09
80777;BME280;70169;51.262;6.336;2023-08-17T04:45:27;101338.38;;;17.39;80.92
80777;BME280;70169;51.262;6.336;2023-08-17T04:47:42;101332.09;;;17.34;80.95
80777;BME280;70169;51.262;6.336;2023-08-17T04:49:58;101334.31;;;17.37;81.17
80777;BME280;70169;51.262;6.336;2023-08-17T04:52:13;101338.84;;;17.36;80.89
80777;BME280;70169;51.262;6.336;2023-08-17T04:54:28;101340.72;;;17.36;80.99
80777;BME280;70169;51.262;6.336;2023-08-17T04:56:44;101339.88;;;17.35;81.09
80777;BME280;70169;51.262;6.336;2023-08-17T04:58:59;101338.84;;;17.36;80.95
80777;BME280;70169;51.262;6.336;2023-08-17T05:01:14;101333.50;;;17.36;80.96
80777;BME280;70169;51.262;6.336;2023-08-17T05:03:29;101336.97;;;17.37;80.99
80777;BME280;70169;51.262;6.336;2023-08-17T05:05:46;101340.22;;;17.39;81.15
80777;BME280;70169;51.262;6.336;2023-08-17T05:08:01;101338.38;;;17.39;81.34
80777;BME280;70169;51.262;6.336;2023-08-17T05:10:17;101328.38;;;17.35;81.06
80777;BME280;70169;51.262;6.336;2023-08-17T05:12:32;101333.50;;;17.36;81.17
80777;BME280;70169;51.262;6.336;2023-08-17T05:14:47;101331.41;;;17.38;81.03
80777;BME280;70169;51.262;6.336;2023-08-17T05:17:03;101329.31;;;17.40;81.37
80777;BME280;70169;51.262;6.336;2023-08-17T05:19:18;101333.63;;;17.41;81.06
80777;BME280;70169;51.262;6.336;2023-08-17T05:21:35;101331.53;;;17.43;80.84
80777;BME280;70169;51.262;6.336;2023-08-17T05:23:51;101335.84;;;17.44;81.06
80777;BME280;70169;51.262;6.336;2023-08-17T05:26:06;101326.78;;;17.45;81.02
80777;BME280;70169;51.262;6.336;2023-08-17T05:28:23;101329.44;;;17.45;80.79
80777;BME280;70169;51.262;6.336;2023-08-17T05:30:38;101324.91;;;17.46;81.12
80777;BME280;70169;51.262;6.336;2023-08-17T05:32:53;101340.84;;;17.53;81.11
80777;BME280;70169;51.262;6.336;2023-08-17T05:35:09;101339.56;;;17.55;81.07
80777;BME280;70169;51.262;6.336;2023-08-17T05:37:24;101341.78;;;17.58;80.91
80777;BME280;70169;51.262;6.336;2023-08-17T05:39:39;101339.13;;;17.58;80.82
80777;BME280;70169;51.262;6.336;2023-08-17T05:41:55;101340.72;;;17.59;80.96
80777;BME280;70169;51.262;6.336;2023-08-17T05:44:12;101343.63;;;17.58;80.61
80777;BME280;70169;51.262;6.336;2023-08-17T05:46:29;101340.94;;;17.58;80.88
80777;BME280;70169;51.262;6.336;2023-08-17T05:48:44;101335.03;;;17.56;80.86
80777;BME280;70169;51.262;6.336;2023-08-17T05:50:59;101345.50;;;17.57;80.77
80777;BME280;70169;51.262;6.336;2023-08-17T05:53:16;101340.94;;;17.58;80.56
80777;BME280;70169;51.262;6.336;2023-08-17T05:55:31;101339.34;;;17.57;80.86
80777;BME280;70169;51.262;6.336;2023-08-17T05:57:47;101338.75;;;17.55;80.65
80777;BME280;70169;51.262;6.336;2023-08-17T06:00:02;101340.38;;;17.56;80.99
80777;BME280;70169;51.262;6.336;2023-08-17T06:02:18;101339.56;;;17.55;81.01
80777;BME280;70169;51.262;6.336;2023-08-17T06:04:33;101351.66;;;17.58;80.99
80777;BME280;70169;51.262;6.336;2023-08-17T06:06:49;101354.31;;;17.58;81.01
80777;BME280;70169;51.262;6.336;2023-08-17T06:09:04;101353.50;;;17.57;81.12
80777;BME280;70169;51.262;6.336;2023-08-17T06:11:20;101360.72;;;17.57;80.91
80777;BME280;70169;51.262;6.336;2023-08-17T06:13:35;101358.28;;;17.55;80.98
80777;BME280;70169;51.262;6.336;2023-08-17T06:15:51;101363.84;;;17.54;80.96
80777;BME280;70169;51.262;6.336;2023-08-17T06:18:06;101361.41;;;17.52;81.25
80777;BME280;70169;51.262;6.336;2023-08-17T06:20:21;101362.69;;;17.49;81.35
80777;BME280;70169;51.262;6.336;2023-08-17T06:22:36;101362.69;;;17.49;81.08
80777;BME280;70169;51.262;6.336;2023-08-17T06:24:52;101364.88;;;17.53;81.23
80777;BME280;70169;51.262;6.336;2023-08-17T06:27:07;101363.25;;;17.52;81.01
80777;BME280;70169;51.262;6.336;2023-08-17T06:29:23;101362.00;;;17.54;81.07
80777;BME280;70169;51.262;6.336;2023-08-17T06:31:38;101359.09;;;17.56;81.23
80777;BME280;70169;51.262;6.336;2023-08-17T06:33:54;101355.97;;;17.59;80.91
80777;BME280;70169;51.262;6.336;2023-08-17T06:36:09;101358.75;;;17.64;81.30
80777;BME280;70169;51.262;6.336;2023-08-17T06:38:28;101357.25;;;17.68;81.17
80777;BME280;70169;51.262;6.336;2023-08-17T06:40:45;101355.25;;;17.75;81.46
80777;BME280;70169;51.262;6.336;2023-08-17T06:43:00;101351.09;;;17.79;81.24
80777;BME280;70169;51.262;6.336;2023-08-17T06:45:16;101360.25;;;17.83;81.14
80777;BME280;70169;51.262;6.336;2023-08-17T06:47:34;101357.13;;;17.86;80.73
80777;BME280;70169;51.262;6.336;2023-08-17T06:49:49;101356.94;;;17.88;80.56
80777;BME280;70169;51.262;6.336;2023-08-17T06:52:05;101357.50;;;17.90;80.66
80777;BME280;70169;51.262;6.336;2023-08-17T06:54:20;101358.09;;;17.92;80.34
80777;BME280;70169;51.262;6.336;2023-08-17T06:56:35;101353.91;;;17.96;80.86
80777;BME280;70169;51.262;6.336;2023-08-17T06:58:51;101352.06;;;17.97;80.66
80777;BME280;70169;51.262;6.336;2023-08-17T07:01:06;101350.41;;;17.96;80.01
80777;BME280;70169;51.262;6.336;2023-08-17T07:03:21;101365.78;;;18.00;80.37
80777;BME280;70169;51.262;6.336;2023-08-17T07:05:37;101363.09;;;18.00;80.26
80777;BME280;70169;51.262;6.336;2023-08-17T07:07:52;101367.88;;;17.98;80.59
80777;BME280;70169;51.262;6.336;2023-08-17T07:10:09;101371.69;;;18.02;80.34
80777;BME280;70169;51.262;6.336;2023-08-17T07:12:25;101365.19;;;17.98;80.04
80777;BME280;70169;51.262;6.336;2023-08-17T07:14:40;101365.31;;;18.03;80.07
80777;BME280;70169;51.262;6.336;2023-08-17T07:16:56;101360.53;;;18.06;80.49
80777;BME280;70169;51.262;6.336;2023-08-17T07:19:11;101364.63;;;18.08;80.48
80777;BME280;70169;51.262;6.336;2023-08-17T07:21:28;101369.13;;;18.08;80.37
80777;BME280;70169;51.262;6.336;2023-08-17T07:23:44;101370.06;;;18.13;80.37
80777;BME280;70169;51.262;6.336;2023-08-17T07:26:00;101376.00;;;18.15;79.78
80777;BME280;70169;51.262;6.336;2023-08-17T07:28:15;101376.22;;;18.14;79.74
80777;BME280;70169;51.262;6.336;2023-08-17T07:30:31;101383.44;;;18.13;79.38
80777;BME280;70169;51.262;6.336;2023-08-17T07:32:46;101382.88;;;18.11;79.43
80777;BME280;70169;51.262;6.336;2023-08-17T07:35:01;101377.38;;;18.06;79.53
80777;BME280;70169;51.262;6.336;2023-08-17T07:37:17;101393.19;;;18.08;79.71
80777;BME280;70169;51.262;6.336;2023-08-17T07:39:33;101388.44;;;18.10;80.13
80777;BME280;70169;51.262;6.336;2023-08-17T07:41:48;101389.03;;;18.12;79.87
80777;BME280;70169;51.262;6.336;2023-08-17T07:44:06;101383.78;;;18.17;80.11
80777;BME280;70169;51.262;6.336;2023-08-17T07:46:22;101388.44;;;18.21;80.11
80777;BME280;70169;51.262;6.336;2023-08-17T07:48:37;101385.06;;;18.26;79.64
80777;BME280;70169;51.262;6.336;2023-08-17T07:50:53;101382.72;;;18.30;79.38
80777;BME280;70169;51.262;6.336;2023-08-17T07:53:08;101391.09;;;18.33;79.26
80777;BME280;70169;51.262;6.336;2023-08-17T07:55:26;101387.13;;;18.36;79.47
80777;BME280;70169;51.262;6.336;2023-08-17T07:57:41;101393.06;;;18.38;79.50
80777;BME280;70169;51.262;6.336;2023-08-17T07:59:56;101390.16;;;18.39;79.18
80777;BME280;70169;51.262;6.336;2023-08-17T08:02:12;101390.06;;;18.34;78.74
80777;BME280;70169;51.262;6.336;2023-08-17T08:04:27;101404.34;;;18.40;78.88
80777;BME280;70169;51.262;6.336;2023-08-17T08:06:42;101396.91;;;18.42;78.51
80777;BME280;70169;51.262;6.336;2023-08-17T08:08:58;101396.31;;;18.40;78.76
80777;BME280;70169;51.262;6.336;2023-08-17T08:11:13;101399.94;;;18.46;78.29
80777;BME280;70169;51.262;6.336;2023-08-17T08:13:28;101401.44;;;18.41;78.16
80777;BME280;70169;51.262;6.336;2023-08-17T08:15:43;101400.38;;;18.43;78.16
80777;BME280;70169;51.262;6.336;2023-08-17T08:17:59;101393.16;;;18.43;78.77
80777;BME280;70169;51.262;6.336;2023-08-17T08:20:14;101404.47;;;18.45;79.06
80777;BME280;70169;51.262;6.336;2023-08-17T08:22:30;101399.78;;;18.52;79.00
80777;BME280;70169;51.262;6.336;2023-08-17T08:24:45;101397.81;;;18.59;79.10
80777;BME280;70169;51.262;6.336;2023-08-17T08:27:00;101401.38;;;18.65;79.12
80777;BME280;70169;51.262;6.336;2023-08-17T08:29:18;101400.13;;;18.68;78.98
80777;BME280;70169;51.262;6.336;2023-08-17T08:31:33;101398.00;;;18.70;79.07
80777;BME280;70169;51.262;6.336;2023-08-17T08:33:49;101398.81;;;18.70;78.93
80777;BME280;70169;51.262;6.336;2023-08-17T08:36:04;101396.59;;;18.67;79.06
80777;BME280;70169;51.262;6.336;2023-08-17T08:38:21;101397.78;;;18.71;78.97
80777;BME280;70169;51.262;6.336;2023-08-17T08:40:37;101398.56;;;18.72;78.91
80777;BME280;70169;51.262;6.336;2023-08-17T08:42:53;101384.94;;;18.73;78.85
80777;BME280;70169;51.262;6.336;2023-08-17T08:45:08;101391.94;;;18.74;78.64
80777;BME280;70169;51.262;6.336;2023-08-17T08:47:25;101383.66;;;18.76;78.55
80777;BME280;70169;51.262;6.336;2023-08-17T08:49:50;101383.66;;;18.76;78.80
80777;BME280;70169;51.262;6.336;2023-08-17T08:52:13;101392.50;;;18.76;78.87
80777;BME280;70169;51.262;6.336;2023-08-17T08:54:32;101393.53;;;18.75;78.66
80777;BME280;70169;51.262;6.336;2023-08-17T08:56:57;101394.94;;;18.78;78.78
80777;BME280;70169;51.262;6.336;2023-08-17T08:59:14;101387.38;;;18.75;78.76
80777;BME280;70169;51.262;6.336;2023-08-17T09:01:32;101397.38;;;18.80;78.71
80777;BME280;70169;51.262;6.336;2023-08-17T09:03:48;101391.56;;;18.83;79.00
80777;BME280;70169;51.262;6.336;2023-08-17T09:06:04;101394.47;;;18.81;78.71
80777;BME280;70169;51.262;6.336;2023-08-17T09:08:27;101390.56;;;18.84;78.60
80777;BME280;70169;51.262;6.336;2023-08-17T09:10:43;101382.97;;;18.81;78.63
80777;BME280;70169;51.262;6.336;2023-08-17T09:12:58;101391.22;;;18.79;78.66
80777;BME280;70169;51.262;6.336;2023-08-17T09:15:13;101386.91;;;18.78;78.75
80777;BME280;70169;51.262;6.336;2023-08-17T09:17:31;101383.66;;;18.76;79.04
80777;BME280;70169;51.262;6.336;2023-08-17T09:19:49;101380.41;;;18.74;79.01
80777;BME280;70169;51.262;6.336;2023-08-17T09:22:04;101381.94;;;18.70;79.04
80777;BME280;70169;51.262;6.336;2023-08-17T09:24:19;101376.00;;;18.68;78.75
80777;BME280;70169;51.262;6.336;2023-08-17T09:26:35;101377.06;;;18.67;79.60
80777;BME280;70169;51.262;6.336;2023-08-17T09:28:51;101378.34;;;18.64;79.58
80777;BME280;70169;51.262;6.336;2023-08-17T09:31:09;101373.81;;;18.65;79.48
80777;BME280;70169;51.262;6.336;2023-08-17T09:33:29;101366.00;;;18.63;79.54
80777;BME280;70169;51.262;6.336;2023-08-17T09:35:45;101367.84;;;18.63;79.56
80777;BME280;70169;51.262;6.336;2023-08-17T09:38:00;101375.66;;;18.64;79.47
80777;BME280;70169;51.262;6.336;2023-08-17T09:40:16;101376.72;;;18.63;78.93
80777;BME280;70169;51.262;6.336;2023-08-17T09:42:34;101381.94;;;18.70;79.43
80777;BME280;70169;51.262;6.336;2023-08-17T09:44:50;101372.34;;;18.74;79.24
80777;BME280;70169;51.262;6.336;2023-08-17T09:47:06;101361.53;;;18.81;79.42
80777;BME280;70169;51.262;6.336;2023-08-17T09:49:23;101368.63;;;18.87;79.33
80777;BME280;70169;51.262;6.336;2023-08-17T09:51:43;101362.53;;;18.91;79.00
80777;BME280;70169;51.262;6.336;2023-08-17T09:53:58;101365.81;;;18.93;78.96
80777;BME280;70169;51.262;6.336;2023-08-17T09:56:14;101364.75;;;18.94;79.00
80777;BME280;70169;51.262;6.336;2023-08-17T09:58:29;101365.81;;;18.93;78.89
80777;BME280;70169;51.262;6.336;2023-08-17T10:00:49;101356.94;;;18.93;78.76
80777;BME280;70169;51.262;6.336;2023-08-17T10:03:04;101358.13;;;18.97;78.50
80777;BME280;70169;51.262;6.336;2023-08-17T10:05:20;101360.56;;;18.99;78.51
80777;BME280;70169;51.262;6.336;2023-08-17T10:07:38;101347.97;;;18.99;78.92
80777;BME280;70169;51.262;6.336;2023-08-17T10:10:04;101358.28;;;19.07;78.77
80777;BME280;70169;51.262;6.336;2023-08-17T10:12:20;101351.66;;;19.10;78.68
80777;BME280;70169;51.262;6.336;2023-08-17T10:14:42;101352.22;;;19.12;77.90
80777;BME280;70169;51.262;6.336;2023-08-17T10:17:07;101344.66;;;19.09;78.19
80777;BME280;70169;51.262;6.336;2023-08-17T10:19:27;101348.16;;;19.09;78.25
80777;BME280;70169;51.262;6.336;2023-08-17T10:24:26;101346.28;;;19.10;78.17
80777;BME280;70169;51.262;6.336;2023-08-17T10:26:42;101347.56;;;19.07;78.46
80777;BME280;70169;51.262;6.336;2023-08-17T10:28:57;101356.75;;;19.11;78.22
80777;BME280;70169;51.262;6.336;2023-08-17T10:31:15;101352.22;;;19.12;78.18
80777;BME280;70169;51.262;6.336;2023-08-17T10:33:31;101351.97;;;19.13;77.47
80777;BME280;70169;51.262;6.336;2023-08-17T10:35:47;101353.53;;;19.09;77.92
80777;BME280;70169;51.262;6.336;2023-08-17T10:38:03;101350.97;;;19.03;77.96
80777;BME280;70169;51.262;6.336;2023-08-17T10:40:34;101358.75;;;19.04;78.02
80777;BME280;70169;51.262;6.336;2023-08-17T10:42:54;101358.75;;;19.04;78.20
80777;BME280;70169;51.262;6.336;2023-08-17T10:45:27;101361.69;;;19.03;78.36
80777;BME280;70169;51.262;6.336;2023-08-17T10:47:43;101363.66;;;19.07;78.12
80777;BME280;70169;51.262;6.336;2023-08-17T10:50:05;101361.56;;;19.09;78.27
80777;BME280;70169;51.262;6.336;2023-08-17T10:52:27;101353.25;;;19.11;78.37
80777;BME280;70169;51.262;6.336;2023-08-17T10:54:42;101364.88;;;19.17;78.38
80777;BME280;70169;51.262;6.336;2023-08-17T10:56:58;101353.38;;;19.16;77.80
80777;BME280;70169;51.262;6.336;2023-08-17T10:59:24;101368.97;;;19.19;77.63
80777;BME280;70169;51.262;6.336;2023-08-17T11:01:40;101360.16;;;19.24;78.05
80777;BME280;70169;51.262;6.336;2023-08-17T11:04:17;101357.84;;;19.27;78.32
80777;BME280;70169;51.262;6.336;2023-08-17T11:06:35;101358.16;;;19.31;77.76
80777;BME280;70169;51.262;6.336;2023-08-17T11:08:55;101360.84;;;19.31;78.10
80777;BME280;70169;51.262;6.336;2023-08-17T11:11:12;101364.31;;;19.31;78.09
80777;BME280;70169;51.262;6.336;2023-08-17T11:13:32;101358.72;;;19.33;78.07
80777;BME280;70169;51.262;6.336;2023-08-17T11:15:48;101369.22;;;19.35;78.04
80777;BME280;70169;51.262;6.336;2023-08-17T11:18:07;101363.59;;;19.36;78.15
80777;BME280;70169;51.262;6.336;2023-08-17T11:20:23;101363.84;;;19.35;77.91
80777;BME280;70169;51.262;6.336;2023-08-17T11:22:39;101366.78;;;19.33;78.05
80777;BME280;70169;51.262;6.336;2023-08-17T11:24:54;101377.97;;;19.30;78.04
80777;BME280;70169;51.262;6.336;2023-08-17T11:27:09;101381.47;;;19.30;78.23
80777;BME280;70169;51.262;6.336;2023-08-17T11:29:25;101374.50;;;19.29;78.39
80777;BME280;70169;51.262;6.336;2023-08-17T11:31:40;101372.13;;;19.33;78.58
80777;BME280;70169;51.262;6.336;2023-08-17T11:33:58;101382.59;;;19.35;78.17
80777;BME280;70169;51.262;6.336;2023-08-17T11:36:13;101384.81;;;19.38;78.22
80777;BME280;70169;51.262;6.336;2023-08-17T11:38:36;101384.09;;;19.42;78.52
80777;BME280;70169;51.262;6.336;2023-08-17T11:40:53;101384.88;;;19.43;78.56
80777;BME280;70169;51.262;6.336;2023-08-17T11:43:08;101376.59;;;19.44;78.77
80777;BME280;70169;51.262;6.336;2023-08-17T11:45:23;101380.69;;;19.47;78.60
80777;BME280;70169;51.262;6.336;2023-08-17T11:47:40;101383.69;;;19.50;78.71
80777;BME280;70169;51.262;6.336;2023-08-17T11:49:59;101383.19;;;19.54;78.76
80777;BME280;70169;51.262;6.336;2023-08-17T11:52:15;101381.41;;;19.59;78.60
80777;BME280;70169;51.262;6.336;2023-08-17T11:54:32;101384.66;;;19.61;77.81
80777;BME280;70169;51.262;6.336;2023-08-17T11:56:48;101383.94;;;19.66;78.39
80777;BME280;70169;51.262;6.336;2023-08-17T11:59:10;101385.31;;;19.68;78.75